createdAt,value
2022-11-26T00:01:28.540Z,8.93
2022-11-26T00:02:28.695Z,9.03
2022-11-26T00:04:22.629Z,9.09
2022-11-26T00:05:22.607Z,9.08
2022-11-26T00:07:16.732Z,9.11
2022-11-26T00:08:16.672Z,9.18
2022-11-26T00:10:10.820Z,9.12
2022-11-26T00:11:10.804Z,9.14
2022-11-26T00:13:05.051Z,9.19
2022-11-26T00:14:05.039Z,9.09
2022-11-26T00:15:59.480Z,9.11
2022-11-26T00:16:59.495Z,9.06
2022-11-26T00:18:53.280Z,9.12
2022-11-26T00:19:53.265Z,9.23
2022-11-26T00:21:47.453Z,9.19
2022-11-26T00:22:47.433Z,9.19
2022-11-26T00:24:41.520Z,9.26
2022-11-26T00:25:41.496Z,9.24
2022-11-26T00:27:35.574Z,9.22
2022-11-26T00:28:35.554Z,9.16
2022-11-26T00:30:29.646Z,9.08
2022-11-26T00:31:29.756Z,8.96
2022-11-26T00:33:23.725Z,8.88
2022-11-26T00:34:23.711Z,8.89
2022-11-26T00:36:17.997Z,8.81
2022-11-26T00:37:17.968Z,8.85
2022-11-26T00:39:12.065Z,8.90
2022-11-26T00:40:12.053Z,8.81
2022-11-26T00:42:06.157Z,8.71
2022-11-26T00:43:06.138Z,8.78
2022-11-26T00:45:00.308Z,8.81
2022-11-26T00:46:00.364Z,8.71
2022-11-26T00:47:54.546Z,8.67
2022-11-26T00:48:54.536Z,8.52
2022-11-26T00:50:49.620Z,8.52
2022-11-26T00:51:49.594Z,8.46
2022-11-26T00:53:43.702Z,8.55
2022-11-26T00:54:43.689Z,8.59
2022-11-26T00:56:38.317Z,8.57
2022-11-26T00:57:37.741Z,8.71
2022-11-26T00:59:31.810Z,8.57
2022-11-26T01:00:31.797Z,8.42
2022-11-26T01:02:26.121Z,8.42
2022-11-26T01:03:26.051Z,8.39
2022-11-26T01:05:20.171Z,8.42
2022-11-26T01:06:20.150Z,8.39
2022-11-26T01:08:14.468Z,8.31
2022-11-26T01:09:14.460Z,8.29
2022-11-26T01:11:08.622Z,8.20
2022-11-26T01:12:08.599Z,8.28
2022-11-26T01:14:03.660Z,8.24
2022-11-26T01:15:03.648Z,8.17
2022-11-26T01:16:57.771Z,8.29
2022-11-26T01:17:57.710Z,8.31
2022-11-26T01:19:51.776Z,8.41
2022-11-26T01:20:51.759Z,8.29
2022-11-26T01:22:45.860Z,8.29
2022-11-26T01:23:45.843Z,8.19
2022-11-26T01:25:39.984Z,8.29
2022-11-26T01:26:39.964Z,8.37
2022-11-26T01:28:34.151Z,8.39
2022-11-26T01:29:34.154Z,8.32
2022-11-26T01:31:28.382Z,8.47
2022-11-26T01:32:29.683Z,8.37
2022-11-26T01:34:22.012Z,8.46
2022-11-26T01:35:22.003Z,8.44
2022-11-26T01:37:16.276Z,8.32
2022-11-26T01:38:16.251Z,8.31
2022-11-26T01:40:10.386Z,8.39
2022-11-26T01:41:10.369Z,8.32
2022-11-26T01:43:04.537Z,8.39
2022-11-26T01:44:04.516Z,8.34
2022-11-26T01:45:58.830Z,8.41
2022-11-26T01:46:58.779Z,8.28
2022-11-26T01:48:52.836Z,8.37
2022-11-26T01:49:52.819Z,8.31
2022-11-26T01:51:47.909Z,8.21
2022-11-26T01:52:47.891Z,8.29
2022-11-26T01:54:42.021Z,8.31
2022-11-26T01:55:41.998Z,8.23
2022-11-26T01:57:36.082Z,8.14
2022-11-26T01:58:39.868Z,8.04
2022-11-26T02:00:30.242Z,8.23
2022-11-26T02:01:30.283Z,8.24
2022-11-26T02:03:24.581Z,8.05
2022-11-26T02:04:24.559Z,7.87
2022-11-26T02:06:18.879Z,7.92
2022-11-26T02:07:18.892Z,7.92
2022-11-26T02:09:12.930Z,8.05
2022-11-26T02:10:12.918Z,8.13
2022-11-26T02:12:07.013Z,8.13
2022-11-26T02:13:06.995Z,8.05
2022-11-26T02:15:01.105Z,8.12
2022-11-26T02:16:01.091Z,8.05
2022-11-26T02:17:55.310Z,7.92
2022-11-26T02:18:55.286Z,7.92
2022-11-26T02:20:49.366Z,7.86
2022-11-26T02:21:49.335Z,7.92
2022-11-26T02:23:43.413Z,7.86
2022-11-26T02:24:43.397Z,7.92
2022-11-26T02:26:37.565Z,7.74
2022-11-26T02:27:37.546Z,7.71
2022-11-26T02:29:31.639Z,7.73
2022-11-26T02:30:31.647Z,7.77
2022-11-26T02:32:25.739Z,7.69
2022-11-26T02:33:25.725Z,7.73
2022-11-26T02:35:19.833Z,7.66
2022-11-26T02:36:19.819Z,7.64
2022-11-26T02:38:13.882Z,7.50
2022-11-26T02:39:13.867Z,7.52
2022-11-26T02:41:07.918Z,7.47
2022-11-26T02:42:07.899Z,7.47
2022-11-26T02:44:02.000Z,7.55
2022-11-26T02:45:01.978Z,7.50
2022-11-26T02:46:56.074Z,7.66
2022-11-26T02:47:56.049Z,7.62
2022-11-26T02:49:50.148Z,7.57
2022-11-26T02:50:50.133Z,7.49
2022-11-26T02:52:44.354Z,7.57
2022-11-26T02:53:44.334Z,7.66
2022-11-26T02:55:38.489Z,7.76
2022-11-26T02:56:38.480Z,7.57
2022-11-26T02:58:32.647Z,7.54
2022-11-26T02:59:32.612Z,7.50
2022-11-26T03:01:27.965Z,7.43
2022-11-26T03:02:27.876Z,7.44
2022-11-26T03:04:22.070Z,7.44
2022-11-26T03:05:21.987Z,7.33
2022-11-26T03:07:15.834Z,7.43
2022-11-26T03:08:15.696Z,7.31
2022-11-26T03:10:09.951Z,7.55
2022-11-26T03:11:09.936Z,7.54
2022-11-26T03:13:04.064Z,7.40
2022-11-26T03:14:04.041Z,7.33
2022-11-26T03:15:58.152Z,7.33
2022-11-26T03:16:58.126Z,7.33
2022-11-26T03:18:52.189Z,7.36
2022-11-26T03:19:52.168Z,7.29
2022-11-26T03:21:46.258Z,7.34
2022-11-26T03:22:46.229Z,7.43
2022-11-26T03:24:40.669Z,7.36
2022-11-26T03:25:40.322Z,7.36
2022-11-26T03:27:34.661Z,7.43
2022-11-26T03:28:34.639Z,7.33
2022-11-26T03:30:29.835Z,7.46
2022-11-26T03:31:29.872Z,7.40
2022-11-26T03:33:23.930Z,7.36
2022-11-26T03:34:23.906Z,7.22
2022-11-26T03:36:19.092Z,7.22
2022-11-26T03:37:19.065Z,7.31
2022-11-26T03:38:18.982Z,7.31
2022-11-26T03:39:19.004Z,7.21
2022-11-26T03:40:19.004Z,7.07
2022-11-26T03:41:18.968Z,6.91
2022-11-26T03:42:18.963Z,7.03
2022-11-26T03:43:18.946Z,7.01
2022-11-26T03:44:18.968Z,7.03
2022-11-26T03:45:18.962Z,7.04
2022-11-26T03:46:18.941Z,7.07
2022-11-26T03:47:18.905Z,7.07
2022-11-26T03:48:18.894Z,7.04
2022-11-26T03:49:18.908Z,7.04
2022-11-26T03:50:18.906Z,7.04
2022-11-26T03:51:18.891Z,6.92
2022-11-26T03:52:18.868Z,6.89
2022-11-26T03:53:18.856Z,6.97
2022-11-26T03:54:18.909Z,6.83
2022-11-26T03:55:18.836Z,6.83
2022-11-26T03:56:18.842Z,6.85
2022-11-26T03:57:18.859Z,6.81
2022-11-26T03:58:18.855Z,6.79
2022-11-26T03:59:18.821Z,6.82
2022-11-26T04:00:18.819Z,6.83
2022-11-26T04:01:18.938Z,6.75
2022-11-26T04:02:18.806Z,6.85
2022-11-26T04:03:18.853Z,6.82
2022-11-26T04:04:18.749Z,6.79
2022-11-26T04:05:18.746Z,6.81
2022-11-26T04:06:18.769Z,6.71
2022-11-26T04:07:18.756Z,6.68
2022-11-26T04:08:18.716Z,6.83
2022-11-26T04:09:18.706Z,6.68
2022-11-26T04:10:18.699Z,6.70
2022-11-26T04:11:18.761Z,6.68
2022-11-26T04:12:18.693Z,6.70
2022-11-26T04:13:18.669Z,6.79
2022-11-26T04:14:18.671Z,6.83
2022-11-26T04:15:18.658Z,6.78
2022-11-26T04:16:18.716Z,6.79
2022-11-26T04:17:18.667Z,6.73
2022-11-26T04:18:18.627Z,6.75
2022-11-26T04:19:18.611Z,6.78
2022-11-26T04:20:18.647Z,6.61
2022-11-26T04:21:18.601Z,6.53
2022-11-26T04:22:18.590Z,6.65
2022-11-26T04:23:18.580Z,6.64
2022-11-26T04:24:18.624Z,6.63
2022-11-26T04:25:18.623Z,6.73
2022-11-26T04:26:18.588Z,6.81
2022-11-26T04:27:18.543Z,6.74
2022-11-26T04:28:18.562Z,6.73
2022-11-26T04:29:18.525Z,6.82
2022-11-26T04:30:18.555Z,6.82
2022-11-26T04:31:18.555Z,6.79
2022-11-26T04:32:18.533Z,6.83
2022-11-26T04:33:18.558Z,6.79
2022-11-26T04:34:18.521Z,6.78
2022-11-26T04:35:18.503Z,6.83
2022-11-26T04:36:18.462Z,6.78
2022-11-26T04:37:18.533Z,6.83
2022-11-26T04:38:22.826Z,6.85
2022-11-26T04:39:18.438Z,6.83
2022-11-26T04:40:18.431Z,6.75
2022-11-26T04:41:18.419Z,6.78
2022-11-26T04:42:18.441Z,6.81
2022-11-26T04:43:18.490Z,6.88
2022-11-26T04:44:18.396Z,6.93
2022-11-26T04:45:18.420Z,6.86
2022-11-26T04:46:18.475Z,6.78
2022-11-26T04:47:18.370Z,6.88
2022-11-26T04:48:18.375Z,6.92
2022-11-26T04:49:18.342Z,7.01
2022-11-26T04:50:18.333Z,7.03
2022-11-26T04:51:18.348Z,6.99
2022-11-26T04:52:18.340Z,6.99
2022-11-26T04:53:18.349Z,6.82
2022-11-26T04:54:18.326Z,6.85
2022-11-26T04:55:18.317Z,6.74
2022-11-26T04:56:18.275Z,6.67
2022-11-26T04:57:18.345Z,6.71
2022-11-26T04:58:18.257Z,6.75
2022-11-26T04:59:18.290Z,6.73
2022-11-26T05:00:18.273Z,6.70
2022-11-26T05:01:18.284Z,6.74
2022-11-26T05:02:18.270Z,6.65
2022-11-26T05:03:18.275Z,6.64
2022-11-26T05:04:18.201Z,6.70
2022-11-26T05:05:18.192Z,6.67
2022-11-26T05:06:18.204Z,6.67
2022-11-26T05:07:18.239Z,6.79
2022-11-26T05:08:18.195Z,6.78
2022-11-26T05:09:18.202Z,6.79
2022-11-26T05:10:18.177Z,6.74
2022-11-26T05:11:18.219Z,6.73
2022-11-26T05:12:18.150Z,6.65
2022-11-26T05:13:18.123Z,6.64
2022-11-26T05:14:18.142Z,6.52
2022-11-26T05:15:18.147Z,6.57
2022-11-26T05:16:18.167Z,6.52
2022-11-26T05:17:18.163Z,6.61
2022-11-26T05:18:18.085Z,6.55
2022-11-26T05:19:18.079Z,6.64
2022-11-26T05:20:18.128Z,6.64
2022-11-26T05:21:18.048Z,6.65
2022-11-26T05:22:18.047Z,6.70
2022-11-26T05:23:18.092Z,6.68
2022-11-26T05:24:18.017Z,6.73
2022-11-26T05:25:18.008Z,6.74
2022-11-26T05:26:18.809Z,6.70
2022-11-26T05:27:18.032Z,6.75
2022-11-26T05:28:17.987Z,6.68
2022-11-26T05:29:18.015Z,6.73
2022-11-26T05:30:17.974Z,6.70
2022-11-26T05:31:18.002Z,6.64
2022-11-26T05:32:17.992Z,6.67
2022-11-26T05:33:17.967Z,6.60
2022-11-26T05:34:17.983Z,6.73
2022-11-26T05:35:17.937Z,6.79
2022-11-26T05:36:17.942Z,6.65
2022-11-26T05:37:17.935Z,6.83
2022-11-26T05:38:17.895Z,6.70
2022-11-26T05:39:17.882Z,6.74
2022-11-26T05:40:17.869Z,6.71
2022-11-26T05:41:17.890Z,6.60
2022-11-26T05:42:17.858Z,6.68
2022-11-26T05:43:17.860Z,6.64
2022-11-26T05:44:17.835Z,6.52
2022-11-26T05:45:17.860Z,6.61
2022-11-26T05:46:17.895Z,6.73
2022-11-26T05:47:17.815Z,6.73
2022-11-26T05:48:17.848Z,6.68
2022-11-26T05:49:17.830Z,6.71
2022-11-26T05:50:17.845Z,6.71
2022-11-26T05:51:17.828Z,6.71
2022-11-26T05:52:17.809Z,6.82
2022-11-26T05:53:17.823Z,6.79
2022-11-26T05:54:17.808Z,6.78
2022-11-26T05:55:17.796Z,6.71
2022-11-26T05:56:17.720Z,6.68
2022-11-26T05:57:17.737Z,6.71
2022-11-26T05:58:17.712Z,6.70
2022-11-26T05:59:17.745Z,6.70
2022-11-26T06:00:17.758Z,6.64
2022-11-26T06:01:17.693Z,6.71
2022-11-26T06:02:17.825Z,6.68
2022-11-26T06:03:20.401Z,6.67
2022-11-26T06:04:17.689Z,6.73
2022-11-26T06:05:17.671Z,6.68
2022-11-26T06:06:17.647Z,6.79
2022-11-26T06:07:17.711Z,6.64
2022-11-26T06:08:17.608Z,6.70
2022-11-26T06:09:17.617Z,6.75
2022-11-26T06:10:17.591Z,6.68
2022-11-26T06:11:17.595Z,6.67
2022-11-26T06:12:17.570Z,6.71
2022-11-26T06:13:17.577Z,6.75
2022-11-26T06:14:17.576Z,6.73
2022-11-26T06:15:17.578Z,6.73
2022-11-26T06:16:17.684Z,6.70
2022-11-26T06:17:17.551Z,6.74
2022-11-26T06:18:17.541Z,6.68
2022-11-26T06:19:17.535Z,6.71
2022-11-26T06:20:17.517Z,6.71
2022-11-26T06:21:17.507Z,6.71
2022-11-26T06:22:17.514Z,6.70
2022-11-26T06:23:17.467Z,6.65
2022-11-26T06:24:17.516Z,6.67
2022-11-26T06:25:17.492Z,6.81
2022-11-26T06:26:17.451Z,6.68
2022-11-26T06:27:17.455Z,6.75
2022-11-26T06:28:17.433Z,6.78
2022-11-26T06:29:17.463Z,6.81
2022-11-26T06:30:17.423Z,6.81
2022-11-26T06:31:17.533Z,6.81
2022-11-26T06:32:17.392Z,6.79
2022-11-26T06:33:17.374Z,6.74
2022-11-26T06:34:17.368Z,6.82
2022-11-26T06:35:17.382Z,6.89
2022-11-26T06:36:17.379Z,6.86
2022-11-26T06:37:17.364Z,6.86
2022-11-26T06:38:17.343Z,6.82
2022-11-26T06:39:17.320Z,6.63
2022-11-26T06:40:17.361Z,6.73
2022-11-26T06:41:17.336Z,6.68
2022-11-26T06:42:17.327Z,6.73
2022-11-26T06:43:17.319Z,6.64
2022-11-26T06:44:17.318Z,6.52
2022-11-26T06:45:17.298Z,6.71
2022-11-26T06:46:17.386Z,6.67
2022-11-26T06:47:17.258Z,6.64
2022-11-26T06:48:17.269Z,6.71
2022-11-26T06:49:17.237Z,6.65
2022-11-26T06:50:17.258Z,6.71
2022-11-26T06:51:17.208Z,6.81
2022-11-26T06:52:17.199Z,6.71
2022-11-26T06:53:17.239Z,6.65
2022-11-26T06:54:17.203Z,6.79
2022-11-26T06:55:17.189Z,6.78
2022-11-26T06:56:19.185Z,6.71
2022-11-26T06:57:17.203Z,6.79
2022-11-26T06:58:17.154Z,6.82
2022-11-26T06:59:17.149Z,6.88
2022-11-26T07:00:17.151Z,6.79
2022-11-26T07:01:17.232Z,6.86
2022-11-26T07:02:17.163Z,6.82
2022-11-26T07:03:22.410Z,6.81
2022-11-26T07:04:17.144Z,6.70
2022-11-26T07:05:17.087Z,6.63
2022-11-26T07:06:17.096Z,6.65
2022-11-26T07:07:17.136Z,6.56
2022-11-26T07:08:17.090Z,6.57
2022-11-26T07:09:17.040Z,6.67
2022-11-26T07:10:17.071Z,6.68
2022-11-26T07:11:17.056Z,6.70
2022-11-26T07:12:17.016Z,6.65
2022-11-26T07:13:17.036Z,6.68
2022-11-26T07:14:17.024Z,6.56
2022-11-26T07:15:17.041Z,6.56
2022-11-26T07:16:17.053Z,6.60
2022-11-26T07:17:16.970Z,6.52
2022-11-26T07:18:16.951Z,6.63
2022-11-26T07:19:17.026Z,6.64
2022-11-26T07:20:16.953Z,6.63
2022-11-26T07:21:16.954Z,6.61
2022-11-26T07:22:16.915Z,6.50
2022-11-26T07:23:16.937Z,6.45
2022-11-26T07:24:16.932Z,6.37
2022-11-26T07:25:16.959Z,6.45
2022-11-26T07:26:16.887Z,6.42
2022-11-26T07:27:16.896Z,6.53
2022-11-26T07:28:16.903Z,6.50
2022-11-26T07:29:16.917Z,6.52
2022-11-26T07:30:16.869Z,6.43
2022-11-26T07:31:17.365Z,6.43
2022-11-26T07:32:16.848Z,6.43
2022-11-26T07:33:16.825Z,6.52
2022-11-26T07:34:16.811Z,6.56
2022-11-26T07:35:16.834Z,6.57
2022-11-26T07:36:16.816Z,6.43
2022-11-26T07:37:16.817Z,6.42
2022-11-26T07:38:16.811Z,6.40
2022-11-26T07:39:16.759Z,6.38
2022-11-26T07:40:16.789Z,6.38
2022-11-26T07:41:16.753Z,6.43
2022-11-26T07:42:16.738Z,6.35
2022-11-26T07:43:16.747Z,6.47
2022-11-26T07:44:16.744Z,6.49
2022-11-26T07:45:16.725Z,6.35
2022-11-26T07:46:16.759Z,6.40
2022-11-26T07:47:16.686Z,6.55
2022-11-26T07:48:17.128Z,6.56
2022-11-26T07:49:16.661Z,6.60
2022-11-26T07:50:16.678Z,6.70
2022-11-26T07:51:16.648Z,6.75
2022-11-26T07:52:16.695Z,6.82
2022-11-26T07:53:16.629Z,6.79
2022-11-26T07:54:16.638Z,6.89
2022-11-26T07:55:16.606Z,6.81
2022-11-26T07:56:16.647Z,6.79
2022-11-26T07:57:16.590Z,6.74
2022-11-26T07:58:16.589Z,6.68
2022-11-26T07:59:16.570Z,6.56
2022-11-26T08:00:16.576Z,6.55
2022-11-26T08:01:16.661Z,6.57
2022-11-26T08:02:16.643Z,6.65
2022-11-26T08:03:16.594Z,6.64
2022-11-26T08:04:16.534Z,6.63
2022-11-26T08:05:16.539Z,6.65
2022-11-26T08:06:16.506Z,6.63
2022-11-26T08:07:23.229Z,6.61
2022-11-26T08:08:16.603Z,6.53
2022-11-26T08:09:16.495Z,6.53
2022-11-26T08:10:16.475Z,6.56
2022-11-26T08:11:16.506Z,6.60
2022-11-26T08:12:16.479Z,6.56
2022-11-26T08:13:16.494Z,6.53
2022-11-26T08:14:16.482Z,6.73
2022-11-26T08:15:16.459Z,6.75
2022-11-26T08:16:16.448Z,6.82
2022-11-26T08:17:16.414Z,6.93
2022-11-26T08:18:16.446Z,6.93
2022-11-26T08:19:16.400Z,7.00
2022-11-26T08:20:16.446Z,6.99
2022-11-26T08:21:16.410Z,7.15
2022-11-26T08:22:16.420Z,7.01
2022-11-26T08:23:16.392Z,7.08
2022-11-26T08:24:16.398Z,7.19
2022-11-26T08:25:16.370Z,7.13
2022-11-26T08:26:29.113Z,7.33
2022-11-26T08:27:16.325Z,7.33
2022-11-26T08:28:16.339Z,7.42
2022-11-26T08:29:16.306Z,7.46
2022-11-26T08:30:16.325Z,7.34
2022-11-26T08:31:16.338Z,7.44
2022-11-26T08:32:16.331Z,7.57
2022-11-26T08:33:16.281Z,7.47
2022-11-26T08:34:16.364Z,7.62
2022-11-26T08:35:16.276Z,7.71
2022-11-26T08:36:16.287Z,7.68
2022-11-26T08:37:16.251Z,7.60
2022-11-26T08:38:16.251Z,7.66
2022-11-26T08:39:16.272Z,7.78
2022-11-26T08:40:16.268Z,7.76
2022-11-26T08:41:16.213Z,7.77
2022-11-26T08:42:16.270Z,7.71
2022-11-26T08:43:16.193Z,7.81
2022-11-26T08:44:16.208Z,7.83
2022-11-26T08:45:16.171Z,7.88
2022-11-26T08:46:16.209Z,7.86
2022-11-26T08:47:16.159Z,7.92
2022-11-26T08:48:16.146Z,8.06
2022-11-26T08:49:16.187Z,7.92
2022-11-26T08:50:16.168Z,7.91
2022-11-26T08:51:16.148Z,7.96
2022-11-26T08:52:16.123Z,7.95
2022-11-26T08:53:16.152Z,8.01
2022-11-26T08:54:16.096Z,8.04
2022-11-26T08:55:16.099Z,8.02
2022-11-26T08:56:16.132Z,8.04
2022-11-26T08:57:16.124Z,8.17
2022-11-26T08:58:16.094Z,8.13
2022-11-26T08:59:16.064Z,8.13
2022-11-26T09:00:16.097Z,8.21
2022-11-26T09:01:16.224Z,8.19
2022-11-26T09:02:18.598Z,8.26
2022-11-26T09:03:16.113Z,8.20
2022-11-26T09:04:16.016Z,8.26
2022-11-26T09:05:16.033Z,8.26
2022-11-26T09:06:16.031Z,8.20
2022-11-26T09:07:16.044Z,8.16
2022-11-26T09:08:16.007Z,8.02
2022-11-26T09:09:16.040Z,7.99
2022-11-26T09:10:15.976Z,8.01
2022-11-26T09:11:15.962Z,8.17
2022-11-26T09:12:15.960Z,8.05
2022-11-26T09:13:20.792Z,8.26
2022-11-26T09:14:15.999Z,8.28
2022-11-26T09:15:15.979Z,8.29
2022-11-26T09:16:16.058Z,8.24
2022-11-26T09:17:15.959Z,8.24
2022-11-26T09:18:15.938Z,8.31
2022-11-26T09:19:15.906Z,8.47
2022-11-26T09:20:15.951Z,8.41
2022-11-26T09:21:15.923Z,8.59
2022-11-26T09:22:15.923Z,8.65
2022-11-26T09:23:15.894Z,8.62
2022-11-26T09:24:15.867Z,8.83
2022-11-26T09:25:15.868Z,8.86
2022-11-26T09:26:15.864Z,8.95
2022-11-26T09:27:15.880Z,9.12
2022-11-26T09:28:15.860Z,9.22
2022-11-26T09:29:15.888Z,9.26
2022-11-26T09:30:15.858Z,9.32
2022-11-26T09:31:15.889Z,9.30
2022-11-26T09:32:24.287Z,9.18
2022-11-26T09:33:15.840Z,9.15
2022-11-26T09:34:15.829Z,9.30
2022-11-26T09:35:15.866Z,9.36
2022-11-26T09:36:15.788Z,9.29
2022-11-26T09:37:15.794Z,9.30
2022-11-26T09:38:15.794Z,9.34
2022-11-26T09:39:15.788Z,9.29
2022-11-26T09:40:15.780Z,9.11
2022-11-26T09:41:15.810Z,9.22
2022-11-26T09:42:15.768Z,9.26
2022-11-26T09:43:15.766Z,9.30
2022-11-26T09:44:15.755Z,9.40
2022-11-26T09:45:15.750Z,9.33
2022-11-26T09:46:15.782Z,9.37
2022-11-26T09:47:15.762Z,9.47
2022-11-26T09:48:15.712Z,9.44
2022-11-26T09:49:15.754Z,9.51
2022-11-26T09:50:15.710Z,9.51
2022-11-26T09:51:15.715Z,9.57
2022-11-26T09:52:15.696Z,9.48
2022-11-26T09:53:15.699Z,9.48
2022-11-26T09:54:15.675Z,9.37
2022-11-26T09:55:15.729Z,9.52
2022-11-26T09:56:15.667Z,9.62
2022-11-26T09:57:15.675Z,9.51
2022-11-26T09:58:15.728Z,9.63
2022-11-26T09:59:15.697Z,9.73
2022-11-26T10:00:15.635Z,9.72
2022-11-26T10:01:15.721Z,9.54
2022-11-26T10:02:15.702Z,9.32
2022-11-26T10:03:15.633Z,9.24
2022-11-26T10:04:15.612Z,9.32
2022-11-26T10:05:21.027Z,9.51
2022-11-26T10:06:15.617Z,9.65
2022-11-26T10:07:15.665Z,9.81
2022-11-26T10:08:15.615Z,10.01
2022-11-26T10:09:15.709Z,10.12
2022-11-26T10:10:15.637Z,9.85
2022-11-26T10:11:15.582Z,9.96
2022-11-26T10:12:25.081Z,10.30
2022-11-26T10:13:19.996Z,10.57
2022-11-26T10:14:15.582Z,10.78
2022-11-26T10:15:15.571Z,10.87
2022-11-26T10:16:15.666Z,10.91
2022-11-26T10:17:15.566Z,11.00
2022-11-26T10:18:15.549Z,11.05
2022-11-26T10:19:15.567Z,11.11
2022-11-26T10:20:15.589Z,11.16
2022-11-26T10:21:18.207Z,11.20
2022-11-26T10:22:15.514Z,11.20
2022-11-26T10:23:15.519Z,10.94
2022-11-26T10:24:15.554Z,10.70
2022-11-26T10:25:15.568Z,10.79
2022-11-26T10:26:15.547Z,10.79
2022-11-26T10:27:15.540Z,10.73
2022-11-26T10:28:15.486Z,10.90
2022-11-26T10:29:15.532Z,10.70
2022-11-26T10:30:15.536Z,10.62
2022-11-26T10:31:15.531Z,10.10
2022-11-26T10:32:15.506Z,10.21
2022-11-26T10:33:15.503Z,10.27
2022-11-26T10:34:15.455Z,10.46
2022-11-26T10:35:15.508Z,10.61
2022-11-26T10:36:15.455Z,10.67
2022-11-26T10:37:15.470Z,10.70
2022-11-26T10:38:15.454Z,10.68
2022-11-26T10:39:15.431Z,10.73
2022-11-26T10:40:15.475Z,10.67
2022-11-26T10:41:15.422Z,10.83
2022-11-26T10:42:15.429Z,10.87
2022-11-26T10:43:15.406Z,10.83
2022-11-26T10:44:15.433Z,10.60
2022-11-26T10:45:15.401Z,10.18
2022-11-26T10:46:15.462Z,9.81
2022-11-26T10:47:15.417Z,9.93
2022-11-26T10:48:15.385Z,10.08
2022-11-26T10:49:15.531Z,10.09
2022-11-26T10:50:45.594Z,10.35
2022-11-26T10:51:15.436Z,10.62
2022-11-26T10:52:15.406Z,10.76
2022-11-26T10:53:15.398Z,10.86
2022-11-26T10:54:15.349Z,11.08
2022-11-26T10:55:15.346Z,11.30
2022-11-26T10:56:15.340Z,11.43
2022-11-26T10:57:15.364Z,11.49
2022-11-26T10:58:15.340Z,11.61
2022-11-26T10:59:15.482Z,11.80
2022-11-26T11:00:15.321Z,11.89
2022-11-26T11:01:15.392Z,12.00
2022-11-26T11:02:15.352Z,12.14
2022-11-26T11:03:15.334Z,12.13
2022-11-26T11:04:15.312Z,12.26
2022-11-26T11:05:15.311Z,12.44
2022-11-26T11:06:15.352Z,12.36
2022-11-26T11:07:15.380Z,12.30
2022-11-26T11:08:15.324Z,12.07
2022-11-26T11:09:15.322Z,12.05
2022-11-26T11:10:15.266Z,12.18
2022-11-26T11:11:15.274Z,12.43
2022-11-26T11:12:15.275Z,12.50
2022-11-26T11:13:15.278Z,12.53
2022-11-26T11:14:15.281Z,12.25
2022-11-26T11:15:15.275Z,12.00
2022-11-26T11:16:15.341Z,11.95
2022-11-26T11:17:15.251Z,11.93
2022-11-26T11:18:15.260Z,11.61
2022-11-26T11:19:15.218Z,11.59
2022-11-26T11:20:15.228Z,11.80
2022-11-26T11:21:15.229Z,11.79
2022-11-26T11:22:15.266Z,11.46
2022-11-26T11:23:15.250Z,11.56
2022-11-26T11:24:15.280Z,11.36
2022-11-26T11:25:15.245Z,11.66
2022-11-26T11:26:15.194Z,11.67
2022-11-26T11:27:15.220Z,11.41
2022-11-26T11:28:15.260Z,11.73
2022-11-26T11:29:15.220Z,11.79
2022-11-26T11:30:15.231Z,11.80
2022-11-26T11:31:15.236Z,12.00
2022-11-26T11:32:15.170Z,12.17
2022-11-26T11:33:15.214Z,11.59
2022-11-26T11:34:15.185Z,11.61
2022-11-26T11:35:15.157Z,11.76
2022-11-26T11:36:15.146Z,12.18
2022-11-26T11:37:15.248Z,12.25
2022-11-26T11:38:15.141Z,12.25
2022-11-26T11:39:15.157Z,12.46
2022-11-26T11:40:17.229Z,12.03
2022-11-26T11:41:15.144Z,12.17
2022-11-26T11:42:15.156Z,11.84
2022-11-26T11:43:15.158Z,11.66
2022-11-26T11:44:15.113Z,11.88
2022-11-26T11:45:15.136Z,11.97
2022-11-26T11:46:15.127Z,11.82
2022-11-26T11:47:15.087Z,11.76
2022-11-26T11:48:15.119Z,11.91
2022-11-26T11:49:15.082Z,12.15
2022-11-26T11:50:15.126Z,12.38
2022-11-26T11:51:15.088Z,12.55
2022-11-26T11:52:15.078Z,12.58
2022-11-26T11:53:15.110Z,12.23
2022-11-26T11:54:15.067Z,11.93
2022-11-26T11:55:15.100Z,11.96
2022-11-26T11:56:15.053Z,11.71
2022-11-26T11:57:15.033Z,11.41
2022-11-26T11:58:15.065Z,11.45
2022-11-26T11:59:15.063Z,11.52
2022-11-26T12:00:15.054Z,11.64
2022-11-26T12:01:15.018Z,11.27
2022-11-26T12:02:15.112Z,11.16
2022-11-26T12:03:15.006Z,11.23
2022-11-26T12:04:19.346Z,11.28
2022-11-26T12:05:15.064Z,11.12
2022-11-26T12:06:15.039Z,11.23
2022-11-26T12:07:15.029Z,11.20
2022-11-26T12:08:15.017Z,11.45
2022-11-26T12:09:15.043Z,11.62
2022-11-26T12:10:15.041Z,11.77
2022-11-26T12:11:15.032Z,11.77
2022-11-26T12:12:14.961Z,11.61
2022-11-26T12:13:15.004Z,11.48
2022-11-26T12:14:14.979Z,11.41
2022-11-26T12:15:15.002Z,11.36
2022-11-26T12:16:14.993Z,11.08
2022-11-26T12:17:14.993Z,11.11
2022-11-26T12:18:14.984Z,11.03
2022-11-26T12:19:14.954Z,11.04
2022-11-26T12:20:14.958Z,11.03
2022-11-26T12:21:14.914Z,11.08
2022-11-26T12:22:14.933Z,11.15
2022-11-26T12:23:17.749Z,11.09
2022-11-26T12:24:14.897Z,11.08
2022-11-26T12:25:14.975Z,11.18
2022-11-26T12:26:14.938Z,11.09
2022-11-26T12:27:14.920Z,11.11
2022-11-26T12:28:14.909Z,11.04
2022-11-26T12:29:14.874Z,11.03
2022-11-26T12:30:14.860Z,11.05
2022-11-26T12:31:14.983Z,11.13
2022-11-26T12:32:14.929Z,11.19
2022-11-26T12:33:14.915Z,11.16
2022-11-26T12:34:14.846Z,11.01
2022-11-26T12:35:14.906Z,10.82
2022-11-26T12:36:14.827Z,10.76
2022-11-26T12:37:14.856Z,10.86
2022-11-26T12:38:14.817Z,10.93
2022-11-26T12:39:14.816Z,10.91
2022-11-26T12:40:14.849Z,10.78
2022-11-26T12:41:14.894Z,10.86
2022-11-26T12:42:14.831Z,10.80
2022-11-26T12:43:14.883Z,10.87
2022-11-26T12:44:14.858Z,10.91
2022-11-26T12:45:17.577Z,10.93
2022-11-26T12:46:14.828Z,10.97
2022-11-26T12:47:14.824Z,11.13
2022-11-26T12:48:14.831Z,11.13
2022-11-26T12:49:14.806Z,11.28
2022-11-26T12:50:14.822Z,11.19
2022-11-26T12:51:14.734Z,11.25
2022-11-26T12:52:14.749Z,11.23
2022-11-26T12:53:14.819Z,11.15
2022-11-26T12:54:14.752Z,11.13
2022-11-26T12:55:14.789Z,11.22
2022-11-26T12:56:14.730Z,11.18
2022-11-26T12:57:14.756Z,11.11
2022-11-26T12:58:14.741Z,11.19
2022-11-26T12:59:14.685Z,11.27
2022-11-26T13:00:14.682Z,11.16
2022-11-26T13:01:14.733Z,11.27
2022-11-26T13:02:14.799Z,11.15
2022-11-26T13:03:14.712Z,11.16
2022-11-26T13:04:36.630Z,11.22
2022-11-26T13:05:14.696Z,11.20
2022-11-26T13:06:14.662Z,11.27
2022-11-26T13:07:14.665Z,11.25
2022-11-26T13:08:14.630Z,11.22
2022-11-26T13:09:15.498Z,11.23
2022-11-26T13:10:14.627Z,11.16
2022-11-26T13:11:14.626Z,11.04
2022-11-26T13:12:14.600Z,11.09
2022-11-26T13:13:14.629Z,10.98
2022-11-26T13:14:14.591Z,10.97
2022-11-26T13:15:14.604Z,11.00
2022-11-26T13:16:14.643Z,11.05
2022-11-26T13:17:14.620Z,11.03
2022-11-26T13:18:14.561Z,11.05
2022-11-26T13:19:14.586Z,10.95
2022-11-26T13:20:14.547Z,10.97
2022-11-26T13:21:14.542Z,11.00
2022-11-26T13:22:14.575Z,11.09
2022-11-26T13:23:14.558Z,10.98
2022-11-26T13:24:18.713Z,10.91
2022-11-26T13:25:14.548Z,10.83
2022-11-26T13:26:14.549Z,10.93
2022-11-26T13:27:14.523Z,10.87
2022-11-26T13:28:14.550Z,10.90
2022-11-26T13:29:14.549Z,10.86
2022-11-26T13:30:14.520Z,10.87
2022-11-26T13:31:14.496Z,11.05
2022-11-26T13:32:14.568Z,10.95
2022-11-26T13:33:14.505Z,11.00
2022-11-26T13:34:14.525Z,10.97
2022-11-26T13:35:14.501Z,10.94
2022-11-26T13:36:14.457Z,10.90
2022-11-26T13:37:14.530Z,10.87
2022-11-26T13:38:14.434Z,10.87
2022-11-26T13:39:14.465Z,10.78
2022-11-26T13:40:14.449Z,10.86
2022-11-26T13:41:14.458Z,10.85
2022-11-26T13:42:14.470Z,10.94
2022-11-26T13:43:14.409Z,11.01
2022-11-26T13:44:14.473Z,11.03
2022-11-26T13:45:14.396Z,10.91
2022-11-26T13:46:18.993Z,10.90
2022-11-26T13:47:14.470Z,10.86
2022-11-26T13:48:14.375Z,10.87
2022-11-26T13:49:14.414Z,10.93
2022-11-26T13:50:14.396Z,10.86
2022-11-26T13:51:14.412Z,11.00
2022-11-26T13:52:14.344Z,11.11
2022-11-26T13:53:14.375Z,11.11
2022-11-26T13:54:14.339Z,11.13
2022-11-26T13:55:14.352Z,11.00
2022-11-26T13:56:14.344Z,11.05
2022-11-26T13:57:14.395Z,11.08
2022-11-26T13:58:14.335Z,11.00
2022-11-26T13:59:14.348Z,11.00
2022-11-26T14:00:14.301Z,10.98
2022-11-26T14:01:14.399Z,11.05
2022-11-26T14:02:14.319Z,11.01
2022-11-26T14:03:14.290Z,11.03
2022-11-26T14:04:14.304Z,10.91
2022-11-26T14:05:14.275Z,10.91
2022-11-26T14:06:14.282Z,10.94
2022-11-26T14:07:14.266Z,10.98
2022-11-26T14:08:14.268Z,11.08
2022-11-26T14:09:14.241Z,11.04
2022-11-26T14:10:14.225Z,11.11
2022-11-26T14:11:18.357Z,11.12
2022-11-26T14:12:14.269Z,11.12
2022-11-26T14:13:14.238Z,11.09
2022-11-26T14:14:14.244Z,11.04
2022-11-26T14:15:14.251Z,11.03
2022-11-26T14:16:14.257Z,11.13
2022-11-26T14:17:14.201Z,11.13
2022-11-26T14:18:14.211Z,11.16